sensor_id;sensor_type;location;lat;lon;timestamp;temperature;humidity
3996;DHT22;2012;49.794;9.722;2024-01-15T00:00:17;-1.80;99.90
3996;DHT22;2012;49.794;9.722;2024-01-15T00:02:44;-1.90;99.90
3996;DHT22;2012;49.794;9.722;2024-01-15T00:05:11;-1.80;99.90
3996;DHT22;2012;49.794;9.722;2024-01-15T00:07:38;-1.80;99.90
3996;DHT22;2012;49.794;9.722;2024-01-15T00:10:05;-1.70;99.90
3996;DHT22;2012;49.794;9.722;2024-01-15T00:12:32;-1.70;99.90
3996;DHT22;2012;49.794;9.722;2024-01-15T00:14:59;-1.70;99.90
3996;DHT22;2012;49.794;9.722;2024-01-15T00:17:26;-1.80;99.90
3996;DHT22;2012;49.794;9.722;2024-01-15T00:19:53;-1.80;99.90
3996;DHT22;2012;49.794;9.722;2024-01-15T00:22:20;-1.80;99.90
3996;DHT22;2012;49.794;9.722;2024-01-15T00:24:47;-1.80;99.90
3996;DHT22;2012;49.794;9.722;2024-01-15T00:27:14;-1.80;99.90
3996;DHT22;2012;49.794;9.722;2024-01-15T00:29:41;-1.80;99.90
3996;DHT22;2012;49.794;9.722;2024-01-15T00:32:08;-1.90;99.90
3996;DHT22;2012;49.794;9.722;2024-01-15T00:34:35;-1.80;99.90
3996;DHT22;2012;49.794;9.722;2024-01-15T00:37:02;-1.90;99.90
3996;DHT22;2012;49.794;9.722;2024-01-15T00:39:29;-1.90;99.90
3996;DHT22;2012;49.794;9.722;2024-01-15T00:41:56;-1.90;99.90
3996;DHT22;2012;49.794;9.722;2024-01-15T00:44:23;-2.00;99.90
3996;DHT22;2012;49.794;9.722;2024-01-15T00:46:50;-1.90;99.90
3996;DHT22;2012;49.794;9.722;2024-01-15T00:49:17;-2.00;99.90
3996;DHT22;2012;49.794;9.722;2024-01-15T00:51:44;-1.90;99.90
3996;DHT22;2012;49.794;9.722;2024-01-15T00:54:11;-1.80;99.90
3996;DHT22;2012;49.794;9.722;2024-01-15T00:56:38;-1.80;99.90
3996;DHT22;2012;49.794;9.722;2024-01-15T00:59:05;-1.80;99.90
3996;DHT22;2012;49.794;9.722;2024-01-15T01:01:32;-1.70;99.90
3996;DHT22;2012;49.794;9.722;2024-01-15T01:03:58;-1.80;99.90
3996;DHT22;2012;49.794;9.722;2024-01-15T01:06:26;-1.70;99.90
3996;DHT22;2012;49.794;9.722;2024-01-15T01:08:53;-1.80;99.90
3996;DHT22;2012;49.794;9.722;2024-01-15T01:11:19;-1.80;99.90
3996;DHT22;2012;49.794;9.722;2024-01-15T01:13:46;-1.80;99.90
3996;DHT22;2012;49.794;9.722;2024-01-15T01:16:13;-1.80;99.90
3996;DHT22;2012;49.794;9.722;2024-01-15T01:18:40;-1.80;99.90
3996;DHT22;2012;49.794;9.722;2024-01-15T01:21:07;-1.90;99.90
3996;DHT22;2012;49.794;9.722;2024-01-15T01:23:34;-1.90;99.90
3996;DHT22;2012;49.794;9.722;2024-01-15T01:26:01;-2.00;99.90
3996;DHT22;2012;49.794;9.722;2024-01-15T01:28:28;-1.90;99.90
3996;DHT22;2012;49.794;9.722;2024-01-15T01:30:55;-2.00;99.90
3996;DHT22;2012;49.794;9.722;2024-01-15T01:33:22;-2.00;99.90
3996;DHT22;2012;49.794;9.722;2024-01-15T01:35:49;-2.00;99.90
3996;DHT22;2012;49.794;9.722;2024-01-15T01:38:16;-1.90;99.90
3996;DHT22;2012;49.794;9.722;2024-01-15T01:40:43;-1.90;99.90
3996;DHT22;2012;49.794;9.722;2024-01-15T01:43:09;-1.90;99.90
3996;DHT22;2012;49.794;9.722;2024-01-15T01:45:37;-1.90;99.90
3996;DHT22;2012;49.794;9.722;2024-01-15T01:48:05;-1.80;99.90
3996;DHT22;2012;49.794;9.722;2024-01-15T01:50:33;-1.80;99.90
3996;DHT22;2012;49.794;9.722;2024-01-15T01:53:01;-1.90;99.90
3996;DHT22;2012;49.794;9.722;2024-01-15T01:55:31;-1.90;99.90
3996;DHT22;2012;49.794;9.722;2024-01-15T01:58:00;-1.90;99.90
3996;DHT22;2012;49.794;9.722;2024-01-15T02:00:28;-1.80;99.90
3996;DHT22;2012;49.794;9.722;2024-01-15T02:02:55;-1.80;99.90
3996;DHT22;2012;49.794;9.722;2024-01-15T02:05:22;-1.80;99.90
3996;DHT22;2012;49.794;9.722;2024-01-15T02:07:49;-1.80;99.90
3996;DHT22;2012;49.794;9.722;2024-01-15T02:10:16;-1.70;99.90
3996;DHT22;2012;49.794;9.722;2024-01-15T02:12:43;-1.80;99.90
3996;DHT22;2012;49.794;9.722;2024-01-15T02:15:11;-1.80;99.90
3996;DHT22;2012;49.794;9.722;2024-01-15T02:17:57;-1.80;99.90
3996;DHT22;2012;49.794;9.722;2024-01-15T02:33:03;-1.80;99.90
3996;DHT22;2012;49.794;9.722;2024-01-15T02:35:30;-1.80;99.90
3996;DHT22;2012;49.794;9.722;2024-01-15T02:37:57;-1.80;99.90
3996;DHT22;2012;49.794;9.722;2024-01-15T02:40:24;-1.80;99.90
3996;DHT22;2012;49.794;9.722;2024-01-15T02:42:51;-1.80;99.90
3996;DHT22;2012;49.794;9.722;2024-01-15T02:45:18;-1.80;99.90
3996;DHT22;2012;49.794;9.722;2024-01-15T02:47:44;-1.70;99.90
3996;DHT22;2012;49.794;9.722;2024-01-15T02:50:11;-1.80;99.90
3996;DHT22;2012;49.794;9.722;2024-01-15T02:52:38;-1.70;99.90
3996;DHT22;2012;49.794;9.722;2024-01-15T02:55:05;-1.80;99.90
3996;DHT22;2012;49.794;9.722;2024-01-15T02:57:32;-1.70;99.90
3996;DHT22;2012;49.794;9.722;2024-01-15T02:59:59;-1.60;99.90
3996;DHT22;2012;49.794;9.722;2024-01-15T03:02:26;-1.60;99.90
3996;DHT22;2012;49.794;9.722;2024-01-15T03:04:53;-1.60;99.90
3996;DHT22;2012;49.794;9.722;2024-01-15T03:07:20;-1.60;99.90
3996;DHT22;2012;49.794;9.722;2024-01-15T03:09:47;-1.60;99.90
3996;DHT22;2012;49.794;9.722;2024-01-15T03:12:14;-1.50;99.90
3996;DHT22;2012;49.794;9.722;2024-01-15T03:14:41;-1.50;99.90
3996;DHT22;2012;49.794;9.722;2024-01-15T03:17:07;-1.50;99.90
3996;DHT22;2012;49.794;9.722;2024-01-15T03:19:36;-1.40;99.90
3996;DHT22;2012;49.794;9.722;2024-01-15T03:22:03;-1.40;99.90
3996;DHT22;2012;49.794;9.722;2024-01-15T03:24:31;-1.50;99.90
3996;DHT22;2012;49.794;9.722;2024-01-15T03:26:58;-1.50;99.90
3996;DHT22;2012;49.794;9.722;2024-01-15T03:29:26;-1.40;99.90
3996;DHT22;2012;49.794;9.722;2024-01-15T03:31:53;-1.40;99.90
3996;DHT22;2012;49.794;9.722;2024-01-15T03:34:20;-1.40;99.90
3996;DHT22;2012;49.794;9.722;2024-01-15T03:36:47;-1.20;99.90
3996;DHT22;2012;49.794;9.722;2024-01-15T03:39:14;-1.30;99.90
3996;DHT22;2012;49.794;9.722;2024-01-15T03:41:41;-1.30;99.90
3996;DHT22;2012;49.794;9.722;2024-01-15T03:44:08;-1.40;99.90
3996;DHT22;2012;49.794;9.722;2024-01-15T03:46:34;-1.30;99.90
3996;DHT22;2012;49.794;9.722;2024-01-15T03:49:01;-1.30;99.90
3996;DHT22;2012;49.794;9.722;2024-01-15T03:51:28;-1.40;99.90
3996;DHT22;2012;49.794;9.722;2024-01-15T03:53:55;-1.30;99.90
3996;DHT22;2012;49.794;9.722;2024-01-15T03:56:22;-1.30;99.90
3996;DHT22;2012;49.794;9.722;2024-01-15T03:58:49;-1.30;99.90
3996;DHT22;2012;49.794;9.722;2024-01-15T04:09:17;-1.30;99.90
3996;DHT22;2012;49.794;9.722;2024-01-15T04:11:44;-1.20;99.90
3996;DHT22;2012;49.794;9.722;2024-01-15T04:14:11;-1.20;99.90
3996;DHT22;2012;49.794;9.722;2024-01-15T04:16:37;-1.30;99.90
3996;DHT22;2012;49.794;9.722;2024-01-15T04:19:04;-1.20;99.90
3996;DHT22;2012;49.794;9.722;2024-01-15T04:21:31;-1.20;99.90
3996;DHT22;2012;49.794;9.722;2024-01-15T04:23:58;-1.20;99.90
3996;DHT22;2012;49.794;9.722;2024-01-15T04:26:25;-1.10;99.90
3996;DHT22;2012;49.794;9.722;2024-01-15T04:28:52;-1.20;99.90
3996;DHT22;2012;49.794;9.722;2024-01-15T04:31:28;-1.20;99.90
3996;DHT22;2012;49.794;9.722;2024-01-15T04:33:55;-1.10;99.90
3996;DHT22;2012;49.794;9.722;2024-01-15T04:36:22;-1.10;99.90
3996;DHT22;2012;49.794;9.722;2024-01-15T04:38:49;-1.10;99.90
3996;DHT22;2012;49.794;9.722;2024-01-15T04:41:16;-1.20;99.90
3996;DHT22;2012;49.794;9.722;2024-01-15T04:43:43;-1.20;99.90
3996;DHT22;2012;49.794;9.722;2024-01-15T04:46:10;-1.10;99.90
3996;DHT22;2012;49.794;9.722;2024-01-15T04:48:37;-1.20;99.90
3996;DHT22;2012;49.794;9.722;2024-01-15T04:51:05;-1.20;99.90
3996;DHT22;2012;49.794;9.722;2024-01-15T04:53:34;-1.30;99.90
3996;DHT22;2012;49.794;9.722;2024-01-15T04:56:01;-1.20;99.90
3996;DHT22;2012;49.794;9.722;2024-01-15T04:58:28;-1.30;99.90
3996;DHT22;2012;49.794;9.722;2024-01-15T05:00:55;-1.30;99.90
3996;DHT22;2012;49.794;9.722;2024-01-15T05:03:22;-1.30;99.90
3996;DHT22;2012;49.794;9.722;2024-01-15T05:05:50;-1.20;99.90
3996;DHT22;2012;49.794;9.722;2024-01-15T05:08:16;-1.30;99.90
3996;DHT22;2012;49.794;9.722;2024-01-15T05:10:43;-1.30;99.90
3996;DHT22;2012;49.794;9.722;2024-01-15T05:13:10;-1.20;99.90
3996;DHT22;2012;49.794;9.722;2024-01-15T05:15:37;-1.20;99.90
3996;DHT22;2012;49.794;9.722;2024-01-15T05:18:04;-1.20;99.90
3996;DHT22;2012;49.794;9.722;2024-01-15T05:20:31;-1.20;99.90
3996;DHT22;2012;49.794;9.722;2024-01-15T05:22:58;-1.10;99.90
3996;DHT22;2012;49.794;9.722;2024-01-15T05:25:25;-1.10;99.90
3996;DHT22;2012;49.794;9.722;2024-01-15T05:27:52;-1.20;99.90
3996;DHT22;2012;49.794;9.722;2024-01-15T05:30:18;-1.00;99.90
3996;DHT22;2012;49.794;9.722;2024-01-15T05:32:45;-1.00;99.90
3996;DHT22;2012;49.794;9.722;2024-01-15T05:35:12;-0.90;99.90
3996;DHT22;2012;49.794;9.722;2024-01-15T05:37:43;-0.70;99.90
3996;DHT22;2012;49.794;9.722;2024-01-15T05:40:10;-0.90;99.90
3996;DHT22;2012;49.794;9.722;2024-01-15T05:42:37;-0.70;99.90
3996;DHT22;2012;49.794;9.722;2024-01-15T05:45:05;-0.70;99.90
3996;DHT22;2012;49.794;9.722;2024-01-15T05:47:32;-0.70;99.90
3996;DHT22;2012;49.794;9.722;2024-01-15T05:50:00;-0.70;99.90
3996;DHT22;2012;49.794;9.722;2024-01-15T05:52:27;-0.70;99.90
3996;DHT22;2012;49.794;9.722;2024-01-15T05:54:54;-0.70;99.90
3996;DHT22;2012;49.794;9.722;2024-01-15T05:57:20;-0.80;99.90
3996;DHT22;2012;49.794;9.722;2024-01-15T05:59:47;-0.90;99.90
3996;DHT22;2012;49.794;9.722;2024-01-15T06:02:14;-0.70;99.90
3996;DHT22;2012;49.794;9.722;2024-01-15T06:04:41;-0.70;99.90
3996;DHT22;2012;49.794;9.722;2024-01-15T06:07:08;-0.90;99.90
3996;DHT22;2012;49.794;9.722;2024-01-15T06:09:35;-0.70;99.90
3996;DHT22;2012;49.794;9.722;2024-01-15T06:12:01;-0.50;99.90
3996;DHT22;2012;49.794;9.722;2024-01-15T06:14:28;-0.50;99.90
3996;DHT22;2012;49.794;9.722;2024-01-15T06:16:55;-0.40;99.90
3996;DHT22;2012;49.794;9.722;2024-01-15T06:19:22;-0.60;99.90
3996;DHT22;2012;49.794;9.722;2024-01-15T06:21:49;-0.10;99.90
3996;DHT22;2012;49.794;9.722;2024-01-15T06:24:15;-0.50;99.90
3996;DHT22;2012;49.794;9.722;2024-01-15T06:26:46;-0.60;99.90
3996;DHT22;2012;49.794;9.722;2024-01-15T06:29:13;-0.60;99.90
3996;DHT22;2012;49.794;9.722;2024-01-15T06:31:40;-0.60;99.90
3996;DHT22;2012;49.794;9.722;2024-01-15T06:34:07;-0.70;99.90
3996;DHT22;2012;49.794;9.722;2024-01-15T06:36:34;-0.80;99.90
3996;DHT22;2012;49.794;9.722;2024-01-15T06:39:00;-0.70;99.90
3996;DHT22;2012;49.794;9.722;2024-01-15T06:41:27;-0.70;99.90
3996;DHT22;2012;49.794;9.722;2024-01-15T06:43:54;-0.80;99.90
3996;DHT22;2012;49.794;9.722;2024-01-15T06:46:22;-0.90;99.90
3996;DHT22;2012;49.794;9.722;2024-01-15T06:48:50;-0.90;99.90
3996;DHT22;2012;49.794;9.722;2024-01-15T06:51:17;-0.90;99.90
3996;DHT22;2012;49.794;9.722;2024-01-15T06:53:43;-0.80;99.90
3996;DHT22;2012;49.794;9.722;2024-01-15T06:56:10;-0.90;99.90
3996;DHT22;2012;49.794;9.722;2024-01-15T06:58:37;-0.80;99.90
3996;DHT22;2012;49.794;9.722;2024-01-15T07:05:24;-0.80;99.90
3996;DHT22;2012;49.794;9.722;2024-01-15T07:07:51;-0.90;99.90
3996;DHT22;2012;49.794;9.722;2024-01-15T07:10:18;-0.90;99.90
3996;DHT22;2012;49.794;9.722;2024-01-15T07:12:45;-0.90;99.90
3996;DHT22;2012;49.794;9.722;2024-01-15T07:15:12;-0.90;99.90
3996;DHT22;2012;49.794;9.722;2024-01-15T07:17:38;-0.90;99.90
3996;DHT22;2012;49.794;9.722;2024-01-15T07:20:07;-0.80;99.90
3996;DHT22;2012;49.794;9.722;2024-01-15T07:22:38;-0.80;99.90
3996;DHT22;2012;49.794;9.722;2024-01-15T07:25:05;-0.80;99.90
3996;DHT22;2012;49.794;9.722;2024-01-15T07:27:33;-0.70;99.90
3996;DHT22;2012;49.794;9.722;2024-01-15T07:30:00;-0.70;99.90
3996;DHT22;2012;49.794;9.722;2024-01-15T07:32:29;-0.70;99.90
3996;DHT22;2012;49.794;9.722;2024-01-15T07:34:56;-0.90;99.90
3996;DHT22;2012;49.794;9.722;2024-01-15T07:37:23;-0.80;99.90
3996;DHT22;2012;49.794;9.722;2024-01-15T07:39:50;-0.80;99.90
3996;DHT22;2012;49.794;9.722;2024-01-15T07:42:17;-0.80;99.90
3996;DHT22;2012;49.794;9.722;2024-01-15T07:44:44;-0.90;99.90
3996;DHT22;2012;49.794;9.722;2024-01-15T07:47:11;-0.90;99.90
3996;DHT22;2012;49.794;9.722;2024-01-15T07:49:39;-0.80;99.90
3996;DHT22;2012;49.794;9.722;2024-01-15T07:52:06;-0.90;99.90
3996;DHT22;2012;49.794;9.722;2024-01-15T07:54:33;-0.90;99.90
3996;DHT22;2012;49.794;9.722;2024-01-15T07:57:01;-0.90;99.90
3996;DHT22;2012;49.794;9.722;2024-01-15T07:59:31;-0.80;99.90
3996;DHT22;2012;49.794;9.722;2024-01-15T08:01:59;-0.80;99.90
3996;DHT22;2012;49.794;9.722;2024-01-15T08:04:26;-0.80;99.90
3996;DHT22;2012;49.794;9.722;2024-01-15T08:06:54;-0.70;99.90
3996;DHT22;2012;49.794;9.722;2024-01-15T08:09:21;-0.70;99.90
3996;DHT22;2012;49.794;9.722;2024-01-15T08:11:48;-0.70;99.90
3996;DHT22;2012;49.794;9.722;2024-01-15T08:14:18;-0.70;99.90
3996;DHT22;2012;49.794;9.722;2024-01-15T08:16:46;-0.80;99.90
3996;DHT22;2012;49.794;9.722;2024-01-15T08:19:12;-0.80;99.90
3996;DHT22;2012;49.794;9.722;2024-01-15T08:21:41;-0.70;99.90
3996;DHT22;2012;49.794;9.722;2024-01-15T08:24:08;-0.70;99.90
3996;DHT22;2012;49.794;9.722;2024-01-15T08:26:35;-0.60;99.90
3996;DHT22;2012;49.794;9.722;2024-01-15T08:29:02;-0.50;99.90
3996;DHT22;2012;49.794;9.722;2024-01-15T08:31:29;-0.60;99.90
3996;DHT22;2012;49.794;9.722;2024-01-15T08:33:56;-0.70;99.90
3996;DHT22;2012;49.794;9.722;2024-01-15T08:36:23;-0.60;99.90
3996;DHT22;2012;49.794;9.722;2024-01-15T08:38:51;-0.70;99.90
3996;DHT22;2012;49.794;9.722;2024-01-15T08:41:18;-0.70;99.90
3996;DHT22;2012;49.794;9.722;2024-01-15T08:43:45;-0.70;99.90
3996;DHT22;2012;49.794;9.722;2024-01-15T08:46:12;-0.60;99.90
3996;DHT22;2012;49.794;9.722;2024-01-15T08:48:39;-0.60;99.90
3996;DHT22;2012;49.794;9.722;2024-01-15T08:51:06;-0.60;99.90
3996;DHT22;2012;49.794;9.722;2024-01-15T08:53:35;-0.60;99.90
3996;DHT22;2012;49.794;9.722;2024-01-15T08:56:01;-0.60;99.90
3996;DHT22;2012;49.794;9.722;2024-01-15T08:58:28;-0.60;99.90
3996;DHT22;2012;49.794;9.722;2024-01-15T09:00:55;-0.60;99.90
3996;DHT22;2012;49.794;9.722;2024-01-15T09:03:23;-0.50;99.90
3996;DHT22;2012;49.794;9.722;2024-01-15T09:05:49;-0.60;99.90
3996;DHT22;2012;49.794;9.722;2024-01-15T09:08:18;-0.50;99.90
3996;DHT22;2012;49.794;9.722;2024-01-15T09:10:44;-0.50;99.90
3996;DHT22;2012;49.794;9.722;2024-01-15T09:13:12;-0.50;99.90
3996;DHT22;2012;49.794;9.722;2024-01-15T09:15:39;-0.40;99.90
3996;DHT22;2012;49.794;9.722;2024-01-15T09:18:06;-0.40;99.90
3996;DHT22;2012;49.794;9.722;2024-01-15T09:20:34;-0.40;99.90
3996;DHT22;2012;49.794;9.722;2024-01-15T09:23:01;-0.30;99.90
3996;DHT22;2012;49.794;9.722;2024-01-15T09:25:29;-0.30;99.90
3996;DHT22;2012;49.794;9.722;2024-01-15T09:27:56;-0.30;99.90
3996;DHT22;2012;49.794;9.722;2024-01-15T09:30:22;-0.30;99.90
3996;DHT22;2012;49.794;9.722;2024-01-15T09:32:49;-0.20;99.90
3996;DHT22;2012;49.794;9.722;2024-01-15T09:35:16;-0.30;99.90
3996;DHT22;2012;49.794;9.722;2024-01-15T09:37:43;-0.30;99.90
3996;DHT22;2012;49.794;9.722;2024-01-15T09:40:14;-0.30;99.90
3996;DHT22;2012;49.794;9.722;2024-01-15T09:42:43;-0.30;99.90
3996;DHT22;2012;49.794;9.722;2024-01-15T09:45:11;-0.20;99.90
3996;DHT22;2012;49.794;9.722;2024-01-15T09:47:40;-0.20;99.90
3996;DHT22;2012;49.794;9.722;2024-01-15T09:50:13;-0.20;99.90
3996;DHT22;2012;49.794;9.722;2024-01-15T09:52:41;-0.10;99.90
3996;DHT22;2012;49.794;9.722;2024-01-15T09:55:09;-0.20;99.90
3996;DHT22;2012;49.794;9.722;2024-01-15T09:57:37;-0.10;99.90
3996;DHT22;2012;49.794;9.722;2024-01-15T10:00:05;-0.10;99.90
3996;DHT22;2012;49.794;9.722;2024-01-15T10:02:35;-0.10;99.90
3996;DHT22;2012;49.794;9.722;2024-01-15T10:05:02;-0.10;99.90
3996;DHT22;2012;49.794;9.722;2024-01-15T10:07:30;-0.10;99.90
3996;DHT22;2012;49.794;9.722;2024-01-15T10:10:00;0.00;99.90
3996;DHT22;2012;49.794;9.722;2024-01-15T10:12:28;0.10;99.90
3996;DHT22;2012;49.794;9.722;2024-01-15T10:14:58;0.10;99.90
3996;DHT22;2012;49.794;9.722;2024-01-15T10:17:25;0.10;99.90
3996;DHT22;2012;49.794;9.722;2024-01-15T10:19:55;0.10;99.90
3996;DHT22;2012;49.794;9.722;2024-01-15T10:22:22;0.10;99.90
3996;DHT22;2012;49.794;9.722;2024-01-15T10:24:51;0.10;99.90
3996;DHT22;2012;49.794;9.722;2024-01-15T10:27:18;0.10;99.90
3996;DHT22;2012;49.794;9.722;2024-01-15T10:29:45;0.10;99.90
3996;DHT22;2012;49.794;9.722;2024-01-15T10:32:11;0.10;99.90
3996;DHT22;2012;49.794;9.722;2024-01-15T10:34:40;0.00;99.90
3996;DHT22;2012;49.794;9.722;2024-01-15T10:37:08;0.10;99.90
3996;DHT22;2012;49.794;9.722;2024-01-15T10:39:36;0.20;99.90
3996;DHT22;2012;49.794;9.722;2024-01-15T10:42:04;0.40;99.90
3996;DHT22;2012;49.794;9.722;2024-01-15T10:44:31;0.40;99.90
3996;DHT22;2012;49.794;9.722;2024-01-15T10:46:58;0.40;99.90
3996;DHT22;2012;49.794;9.722;2024-01-15T10:49:26;0.50;99.90
3996;DHT22;2012;49.794;9.722;2024-01-15T10:51:59;0.40;99.90
3996;DHT22;2012;49.794;9.722;2024-01-15T10:54:27;0.50;99.90
3996;DHT22;2012;49.794;9.722;2024-01-15T10:56:56;0.50;99.90
3996;DHT22;2012;49.794;9.722;2024-01-15T10:59:23;0.60;99.90
3996;DHT22;2012;49.794;9.722;2024-01-15T11:01:50;0.80;99.90
3996;DHT22;2012;49.794;9.722;2024-01-15T11:04:21;0.80;99.90
3996;DHT22;2012;49.794;9.722;2024-01-15T11:06:53;1.00;99.90
3996;DHT22;2012;49.794;9.722;2024-01-15T11:09:23;1.00;99.90
3996;DHT22;2012;49.794;9.722;2024-01-15T11:11:53;1.00;99.90
3996;DHT22;2012;49.794;9.722;2024-01-15T11:14:39;0.90;99.90
3996;DHT22;2012;49.794;9.722;2024-01-15T11:17:06;0.80;99.90
3996;DHT22;2012;49.794;9.722;2024-01-15T11:19:43;0.70;99.90
3996;DHT22;2012;49.794;9.722;2024-01-15T11:25:13;0.70;99.90
3996;DHT22;2012;49.794;9.722;2024-01-15T11:27:45;0.60;99.90
3996;DHT22;2012;49.794;9.722;2024-01-15T11:30:14;0.60;99.90
3996;DHT22;2012;49.794;9.722;2024-01-15T11:32:41;0.60;99.90
3996;DHT22;2012;49.794;9.722;2024-01-15T11:35:10;0.70;99.90
3996;DHT22;2012;49.794;9.722;2024-01-15T11:37:56;0.60;99.90
3996;DHT22;2012;49.794;9.722;2024-01-15T11:43:00;0.70;99.90
3996;DHT22;2012;49.794;9.722;2024-01-15T11:45:27;0.70;99.90
3996;DHT22;2012;49.794;9.722;2024-01-15T11:50:35;0.70;99.90
3996;DHT22;2012;49.794;9.722;2024-01-15T11:53:13;0.70;99.90
3996;DHT22;2012;49.794;9.722;2024-01-15T11:55:44;0.70;99.90
3996;DHT22;2012;49.794;9.722;2024-01-15T11:58:12;0.70;99.90
3996;DHT22;2012;49.794;9.722;2024-01-15T12:00:52;0.70;99.90
3996;DHT22;2012;49.794;9.722;2024-01-15T12:03:24;0.70;99.90
3996;DHT22;2012;49.794;9.722;2024-01-15T12:05:54;0.80;99.90
3996;DHT22;2012;49.794;9.722;2024-01-15T12:08:22;0.70;99.90
3996;DHT22;2012;49.794;9.722;2024-01-15T12:10:49;0.80;99.90
3996;DHT22;2012;49.794;9.722;2024-01-15T12:13:16;0.80;99.90
3996;DHT22;2012;49.794;9.722;2024-01-15T12:15:46;0.70;99.90
3996;DHT22;2012;49.794;9.722;2024-01-15T12:18:17;0.70;99.90
3996;DHT22;2012;49.794;9.722;2024-01-15T12:20:45;0.60;99.90
3996;DHT22;2012;49.794;9.722;2024-01-15T12:23:17;0.70;99.90
3996;DHT22;2012;49.794;9.722;2024-01-15T12:25:44;0.70;99.90
3996;DHT22;2012;49.794;9.722;2024-01-15T12:28:12;0.70;99.90
3996;DHT22;2012;49.794;9.722;2024-01-15T12:30:39;0.60;99.90
3996;DHT22;2012;49.794;9.722;2024-01-15T12:33:07;0.70;99.90
3996;DHT22;2012;49.794;9.722;2024-01-15T12:35:36;0.70;99.90
3996;DHT22;2012;49.794;9.722;2024-01-15T12:38:03;0.60;99.90
3996;DHT22;2012;49.794;9.722;2024-01-15T12:40:32;0.60;99.90
3996;DHT22;2012;49.794;9.722;2024-01-15T12:43:05;0.70;99.90
3996;DHT22;2012;49.794;9.722;2024-01-15T12:45:32;0.70;99.90
3996;DHT22;2012;49.794;9.722;2024-01-15T12:47:59;0.80;99.90
3996;DHT22;2012;49.794;9.722;2024-01-15T12:50:27;0.80;99.90
3996;DHT22;2012;49.794;9.722;2024-01-15T12:52:54;0.90;99.90
3996;DHT22;2012;49.794;9.722;2024-01-15T12:55:21;0.80;99.90
3996;DHT22;2012;49.794;9.722;2024-01-15T12:57:49;0.90;99.90
3996;DHT22;2012;49.794;9.722;2024-01-15T13:00:16;0.90;99.90
3996;DHT22;2012;49.794;9.722;2024-01-15T13:02:43;0.80;99.90
3996;DHT22;2012;49.794;9.722;2024-01-15T13:05:11;0.80;99.90
3996;DHT22;2012;49.794;9.722;2024-01-15T13:07:41;0.80;99.90
3996;DHT22;2012;49.794;9.722;2024-01-15T13:10:08;0.90;99.90
3996;DHT22;2012;49.794;9.722;2024-01-15T13:12:40;0.80;99.90
3996;DHT22;2012;49.794;9.722;2024-01-15T13:15:09;0.80;99.90
3996;DHT22;2012;49.794;9.722;2024-01-15T13:17:41;0.80;99.90
3996;DHT22;2012;49.794;9.722;2024-01-15T13:20:09;0.80;99.90
3996;DHT22;2012;49.794;9.722;2024-01-15T13:22:38;0.80;99.90
3996;DHT22;2012;49.794;9.722;2024-01-15T13:25:07;0.80;99.90
3996;DHT22;2012;49.794;9.722;2024-01-15T13:27:34;0.70;99.90
3996;DHT22;2012;49.794;9.722;2024-01-15T13:30:03;0.70;99.90
3996;DHT22;2012;49.794;9.722;2024-01-15T13:32:30;0.70;99.90
3996;DHT22;2012;49.794;9.722;2024-01-15T13:34:57;0.70;99.90
3996;DHT22;2012;49.794;9.722;2024-01-15T13:37:24;0.70;99.90
3996;DHT22;2012;49.794;9.722;2024-01-15T13:39:52;0.70;99.90
3996;DHT22;2012;49.794;9.722;2024-01-15T13:42:19;0.70;99.90
3996;DHT22;2012;49.794;9.722;2024-01-15T13:44:49;0.70;99.90
3996;DHT22;2012;49.794;9.722;2024-01-15T13:47:17;0.70;99.90
3996;DHT22;2012;49.794;9.722;2024-01-15T13:49:44;0.70;99.90
3996;DHT22;2012;49.794;9.722;2024-01-15T13:52:11;0.80;99.90
3996;DHT22;2012;49.794;9.722;2024-01-15T13:54:39;0.70;99.90
3996;DHT22;2012;49.794;9.722;2024-01-15T13:57:19;0.70;99.90
3996;DHT22;2012;49.794;9.722;2024-01-15T13:59:47;0.70;99.90
3996;DHT22;2012;49.794;9.722;2024-01-15T14:02:14;0.70;99.90
3996;DHT22;2012;49.794;9.722;2024-01-15T14:04:49;0.60;99.90
3996;DHT22;2012;49.794;9.722;2024-01-15T14:07:16;0.60;99.90
3996;DHT22;2012;49.794;9.722;2024-01-15T14:09:43;0.50;99.90
3996;DHT22;2012;49.794;9.722;2024-01-15T14:12:10;0.50;99.90
3996;DHT22;2012;49.794;9.722;2024-01-15T14:14:38;0.50;99.90
3996;DHT22;2012;49.794;9.722;2024-01-15T14:17:06;0.50;99.90
3996;DHT22;2012;49.794;9.722;2024-01-15T14:19:33;0.50;99.90
3996;DHT22;2012;49.794;9.722;2024-01-15T14:22:00;0.50;99.90
3996;DHT22;2012;49.794;9.722;2024-01-15T14:24:27;0.50;99.90
3996;DHT22;2012;49.794;9.722;2024-01-15T14:26:54;0.50;99.90
3996;DHT22;2012;49.794;9.722;2024-01-15T14:29:21;0.40;99.90
3996;DHT22;2012;49.794;9.722;2024-01-15T14:31:49;0.40;99.90
3996;DHT22;2012;49.794;9.722;2024-01-15T14:34:16;0.40;99.90
3996;DHT22;2012;49.794;9.722;2024-01-15T14:36:45;0.40;99.90
3996;DHT22;2012;49.794;9.722;2024-01-15T14:39:13;0.50;99.90
3996;DHT22;2012;49.794;9.722;2024-01-15T14:41:40;0.40;99.90
3996;DHT22;2012;49.794;9.722;2024-01-15T14:44:07;0.40;99.90
3996;DHT22;2012;49.794;9.722;2024-01-15T14:46:33;0.50;99.90
3996;DHT22;2012;49.794;9.722;2024-01-15T14:49:00;0.50;99.90
3996;DHT22;2012;49.794;9.722;2024-01-15T14:51:27;0.50;99.90
3996;DHT22;2012;49.794;9.722;2024-01-15T14:53:54;0.50;99.90
3996;DHT22;2012;49.794;9.722;2024-01-15T14:56:21;0.50;99.90
3996;DHT22;2012;49.794;9.722;2024-01-15T14:58:48;0.50;99.90
3996;DHT22;2012;49.794;9.722;2024-01-15T15:01:15;0.60;99.90
3996;DHT22;2012;49.794;9.722;2024-01-15T15:03:42;0.50;99.90
3996;DHT22;2012;49.794;9.722;2024-01-15T15:06:11;0.60;99.90
3996;DHT22;2012;49.794;9.722;2024-01-15T15:08:39;0.60;99.90
3996;DHT22;2012;49.794;9.722;2024-01-15T15:11:07;0.70;99.90
3996;DHT22;2012;49.794;9.722;2024-01-15T15:13:34;0.70;99.90
3996;DHT22;2012;49.794;9.722;2024-01-15T15:16:11;0.70;99.90
3996;DHT22;2012;49.794;9.722;2024-01-15T15:18:40;0.60;99.90
3996;DHT22;2012;49.794;9.722;2024-01-15T15:21:10;0.60;99.90
3996;DHT22;2012;49.794;9.722;2024-01-15T15:23:38;0.70;99.90
3996;DHT22;2012;49.794;9.722;2024-01-15T15:26:08;0.70;99.90
3996;DHT22;2012;49.794;9.722;2024-01-15T15:28:36;0.70;99.90
3996;DHT22;2012;49.794;9.722;2024-01-15T15:31:04;0.70;99.90
3996;DHT22;2012;49.794;9.722;2024-01-15T15:33:31;0.80;99.90
3996;DHT22;2012;49.794;9.722;2024-01-15T15:35:58;0.70;99.90
3996;DHT22;2012;49.794;9.722;2024-01-15T15:38:26;0.70;99.90
3996;DHT22;2012;49.794;9.722;2024-01-15T15:40:53;0.80;99.90
3996;DHT22;2012;49.794;9.722;2024-01-15T15:43:22;0.80;99.90
3996;DHT22;2012;49.794;9.722;2024-01-15T15:45:49;0.80;99.90
3996;DHT22;2012;49.794;9.722;2024-01-15T15:48:16;0.80;99.90
3996;DHT22;2012;49.794;9.722;2024-01-15T15:50:43;0.80;99.90
3996;DHT22;2012;49.794;9.722;2024-01-15T15:53:11;0.80;99.90
3996;DHT22;2012;49.794;9.722;2024-01-15T15:55:38;0.90;99.90
3996;DHT22;2012;49.794;9.722;2024-01-15T15:58:05;0.80;99.90
3996;DHT22;2012;49.794;9.722;2024-01-15T16:00:32;0.90;99.90
3996;DHT22;2012;49.794;9.722;2024-01-15T16:02:59;0.80;99.90
3996;DHT22;2012;49.794;9.722;2024-01-15T16:05:26;0.80;99.90
3996;DHT22;2012;49.794;9.722;2024-01-15T16:08:07;0.80;99.90
3996;DHT22;2012;49.794;9.722;2024-01-15T16:10:36;0.80;99.90
3996;DHT22;2012;49.794;9.722;2024-01-15T16:13:03;0.80;99.90
3996;DHT22;2012;49.794;9.722;2024-01-15T16:15:30;0.90;99.90
3996;DHT22;2012;49.794;9.722;2024-01-15T16:17:56;0.80;99.90
3996;DHT22;2012;49.794;9.722;2024-01-15T16:20:43;0.90;99.90
3996;DHT22;2012;49.794;9.722;2024-01-15T16:23:30;0.80;99.90
3996;DHT22;2012;49.794;9.722;2024-01-15T16:26:17;0.90;99.90
3996;DHT22;2012;49.794;9.722;2024-01-15T16:28:44;0.80;99.90
3996;DHT22;2012;49.794;9.722;2024-01-15T16:31:11;0.80;99.90
3996;DHT22;2012;49.794;9.722;2024-01-15T16:33:38;1.10;99.90
3996;DHT22;2012;49.794;9.722;2024-01-15T16:36:06;0.90;99.90
3996;DHT22;2012;49.794;9.722;2024-01-15T16:38:33;0.90;99.90
3996;DHT22;2012;49.794;9.722;2024-01-15T16:41:00;0.90;99.90
3996;DHT22;2012;49.794;9.722;2024-01-15T16:43:27;0.90;99.90